sensor_id;sensor_type;location;lat;lon;timestamp;pressure;altitude;pressure_sealevel;temperature;humidity
74270;BME280;62754;48.252;11.654;2023-04-25T00:02:21;95540.06;;;7.42;72.82
74270;BME280;62754;48.252;11.654;2023-04-25T00:04:47;95531.47;;;7.43;72.15
74270;BME280;62754;48.252;11.654;2023-04-25T00:07:13;95532.38;;;7.31;72.62
74270;BME280;62754;48.252;11.654;2023-04-25T00:09:39;95531.22;;;7.35;72.96
74270;BME280;62754;48.252;11.654;2023-04-25T00:12:07;95526.34;;;7.32;72.59
74270;BME280;62754;48.252;11.654;2023-04-25T00:14:36;95525.53;;;7.32;72.47
74270;BME280;62754;48.252;11.654;2023-04-25T00:17:09;95535.19;;;7.39;72.74
74270;BME280;62754;48.252;11.654;2023-04-25T00:19:37;95528.91;;;7.43;72.65
74270;BME280;62754;48.252;11.654;2023-04-25T00:22:03;95526.56;;;7.51;71.94
74270;BME280;62754;48.252;11.654;2023-04-25T00:24:31;95530.28;;;7.36;72.51
74270;BME280;62754;48.252;11.654;2023-04-25T00:26:57;95530.28;;;7.47;72.32
74270;BME280;62754;48.252;11.654;2023-04-25T00:29:23;95537.63;;;7.41;73.22
74270;BME280;62754;48.252;11.654;2023-04-25T00:31:51;95530.28;;;7.36;73.14
74270;BME280;62754;48.252;11.654;2023-04-25T00:34:16;95536.81;;;7.51;72.81
74270;BME280;62754;48.252;11.654;2023-04-25T00:36:44;95530.41;;;7.35;73.50
74270;BME280;62754;48.252;11.654;2023-04-25T00:39:15;95533.53;;;7.38;73.33
74270;BME280;62754;48.252;11.654;2023-04-25T00:41:43;95533.19;;;7.43;72.98
74270;BME280;62754;48.252;11.654;2023-04-25T00:44:14;95532.03;;;7.47;73.06
74270;BME280;62754;48.252;11.654;2023-04-25T00:46:43;95524.25;;;7.48;72.54
74270;BME280;62754;48.252;11.654;2023-04-25T00:49:12;95515.84;;;7.46;72.80
74270;BME280;62754;48.252;11.654;2023-04-25T00:51:41;95521.44;;;7.51;72.83
74270;BME280;62754;48.252;11.654;2023-04-25T00:54:07;95517.25;;;7.39;73.35
74270;BME280;62754;48.252;11.654;2023-04-25T00:56:32;95520.75;;;7.27;73.38
74270;BME280;62754;48.252;11.654;2023-04-25T00:58:58;95517.84;;;7.21;73.36
74270;BME280;62754;48.252;11.654;2023-04-25T01:01:24;95517.94;;;7.19;73.51
74270;BME280;62754;48.252;11.654;2023-04-25T01:03:53;95518.91;;;7.18;73.85
74270;BME280;62754;48.252;11.654;2023-04-25T01:06:21;95519.47;;;7.22;73.67
74270;BME280;62754;48.252;11.654;2023-04-25T01:08:47;95510.25;;;7.08;74.03
74270;BME280;62754;48.252;11.654;2023-04-25T01:11:12;95509.09;;;7.12;73.94
74270;BME280;62754;48.252;11.654;2023-04-25T01:13:38;95514.91;;;7.03;74.37
74270;BME280;62754;48.252;11.654;2023-04-25T01:16:06;95512.72;;;7.09;73.87
74270;BME280;62754;48.252;11.654;2023-04-25T01:18:33;95516.53;;;7.04;73.95
74270;BME280;62754;48.252;11.654;2023-04-25T01:21:11;95517.34;;;6.93;74.80
74270;BME280;62754;48.252;11.654;2023-04-25T01:23:42;95516.44;;;6.94;74.74
74270;BME280;62754;48.252;11.654;2023-04-25T01:26:10;95516.88;;;6.88;74.76
74270;BME280;62754;48.252;11.654;2023-04-25T01:28:37;95512.22;;;6.82;75.28
74270;BME280;62754;48.252;11.654;2023-04-25T01:31:06;95513.25;;;6.80;75.24
74270;BME280;62754;48.252;11.654;2023-04-25T01:33:34;95504.53;;;6.71;75.30
74270;BME280;62754;48.252;11.654;2023-04-25T01:36:02;95501.47;;;6.66;75.39
74270;BME280;62754;48.252;11.654;2023-04-25T01:38:28;95505.78;;;6.65;75.62
74270;BME280;62754;48.252;11.654;2023-04-25T01:40:56;95509.16;;;6.66;75.42
74270;BME280;62754;48.252;11.654;2023-04-25T01:43:24;95501.56;;;6.53;75.88
74270;BME280;62754;48.252;11.654;2023-04-25T01:45:53;95500.41;;;6.57;76.26
74270;BME280;62754;48.252;11.654;2023-04-25T01:48:19;95506.25;;;6.59;75.95
74270;BME280;62754;48.252;11.654;2023-04-25T01:50:44;95505.41;;;6.48;76.23
74270;BME280;62754;48.252;11.654;2023-04-25T01:53:15;95489.47;;;6.44;76.32
74270;BME280;62754;48.252;11.654;2023-04-25T01:55:41;95503.50;;;6.39;76.69
74270;BME280;62754;48.252;11.654;2023-04-25T01:58:08;95497.91;;;6.34;76.57
74270;BME280;62754;48.252;11.654;2023-04-25T02:00:36;95502.22;;;6.33;76.93
74270;BME280;62754;48.252;11.654;2023-04-25T02:03:04;95496.72;;;6.27;77.28
74270;BME280;62754;48.252;11.654;2023-04-25T02:05:39;95499.03;;;6.30;76.89
74270;BME280;62754;48.252;11.654;2023-04-25T02:08:06;95504.72;;;6.22;77.02
74270;BME280;62754;48.252;11.654;2023-04-25T02:10:35;95494.28;;;6.25;77.13
74270;BME280;62754;48.252;11.654;2023-04-25T02:13:04;95496.47;;;6.30;77.07
74270;BME280;62754;48.252;11.654;2023-04-25T02:15:32;95494.47;;;6.22;77.31
74270;BME280;62754;48.252;11.654;2023-04-25T02:18:02;95489.97;;;6.26;76.95
74270;BME280;62754;48.252;11.654;2023-04-25T02:20:31;95496.06;;;6.36;76.53
74270;BME280;62754;48.252;11.654;2023-04-25T02:22:57;95486.88;;;6.33;77.04
74270;BME280;62754;48.252;11.654;2023-04-25T02:25:23;95486.47;;;6.27;76.73
74270;BME280;62754;48.252;11.654;2023-04-25T02:27:51;95496.38;;;6.31;76.82
74270;BME280;62754;48.252;11.654;2023-04-25T02:30:17;95494.06;;;6.28;76.79
74270;BME280;62754;48.252;11.654;2023-04-25T02:32:45;95494.97;;;6.27;76.62
74270;BME280;62754;48.252;11.654;2023-04-25T02:35:11;95498.09;;;6.54;75.42
74270;BME280;62754;48.252;11.654;2023-04-25T02:37:39;95486.66;;;6.47;76.04
74270;BME280;62754;48.252;11.654;2023-04-25T02:40:06;95489.47;;;6.55;75.66
74270;BME280;62754;48.252;11.654;2023-04-25T02:42:34;95480.53;;;6.61;75.19
74270;BME280;62754;48.252;11.654;2023-04-25T02:45:02;95478.19;;;6.58;75.16
74270;BME280;62754;48.252;11.654;2023-04-25T02:47:28;95473.78;;;6.60;74.88
74270;BME280;62754;48.252;11.654;2023-04-25T02:49:54;95471.09;;;6.61;74.67
74270;BME280;62754;48.252;11.654;2023-04-25T02:52:20;95477.75;;;6.64;74.55
74270;BME280;62754;48.252;11.654;2023-04-25T02:54:46;95478.53;;;6.64;74.92
74270;BME280;62754;48.252;11.654;2023-04-25T02:57:14;95482.97;;;6.62;74.53
74270;BME280;62754;48.252;11.654;2023-04-25T02:59:39;95478.59;;;6.76;73.90
74270;BME280;62754;48.252;11.654;2023-04-25T03:02:07;95493.97;;;6.87;73.69
74270;BME280;62754;48.252;11.654;2023-04-25T03:04:36;95475.91;;;6.77;73.87
74270;BME280;62754;48.252;11.654;2023-04-25T03:07:04;95478.22;;;6.80;73.81
74270;BME280;62754;48.252;11.654;2023-04-25T03:09:32;95477.53;;;6.78;73.24
74270;BME280;62754;48.252;11.654;2023-04-25T03:12:03;95466.81;;;6.95;72.69
74270;BME280;62754;48.252;11.654;2023-04-25T03:14:32;95468.94;;;7.01;72.20
74270;BME280;62754;48.252;11.654;2023-04-25T03:16:58;95475.78;;;7.01;72.91
74270;BME280;62754;48.252;11.654;2023-04-25T03:19:24;95474.63;;;6.94;72.31
74270;BME280;62754;48.252;11.654;2023-04-25T03:21:49;95470.00;;;7.10;72.22
74270;BME280;62754;48.252;11.654;2023-04-25T03:24:17;95472.56;;;7.10;72.02
74270;BME280;62754;48.252;11.654;2023-04-25T03:26:48;95471.81;;;7.19;72.47
74270;BME280;62754;48.252;11.654;2023-04-25T03:29:16;95473.00;;;7.04;75.08
74270;BME280;62754;48.252;11.654;2023-04-25T03:31:43;95461.84;;;6.94;76.06
74270;BME280;62754;48.252;11.654;2023-04-25T03:34:09;95459.13;;;6.95;75.82
74270;BME280;62754;48.252;11.654;2023-04-25T03:36:37;95455.41;;;6.99;75.19
74270;BME280;62754;48.252;11.654;2023-04-25T03:39:05;95453.19;;;6.84;77.21
74270;BME280;62754;48.252;11.654;2023-04-25T03:41:31;95462.66;;;6.83;76.95
74270;BME280;62754;48.252;11.654;2023-04-25T03:43:57;95468.94;;;6.79;78.07
74270;BME280;62754;48.252;11.654;2023-04-25T03:46:28;95465.22;;;6.83;76.69
74270;BME280;62754;48.252;11.654;2023-04-25T03:48:56;95469.19;;;6.87;75.50
74270;BME280;62754;48.252;11.654;2023-04-25T03:51:22;95472.88;;;6.83;75.70
74270;BME280;62754;48.252;11.654;2023-04-25T03:53:52;95463.81;;;6.79;75.15
74270;BME280;62754;48.252;11.654;2023-04-25T03:56:18;95459.72;;;6.77;75.52
74270;BME280;62754;48.252;11.654;2023-04-25T03:58:44;95458.88;;;6.65;74.98
74270;BME280;62754;48.252;11.654;2023-04-25T04:01:10;95455.75;;;6.72;75.21
74270;BME280;62754;48.252;11.654;2023-04-25T04:03:36;95458.09;;;6.76;74.04
74270;BME280;62754;48.252;11.654;2023-04-25T04:06:05;95461.59;;;6.75;75.21
74270;BME280;62754;48.252;11.654;2023-04-25T04:08:33;95466.72;;;6.75;74.62
74270;BME280;62754;48.252;11.654;2023-04-25T04:10:59;95461.94;;;6.81;73.77
74270;BME280;62754;48.252;11.654;2023-04-25T04:13:26;95464.16;;;6.75;73.36
74270;BME280;62754;48.252;11.654;2023-04-25T04:15:54;95463.56;;;6.71;74.19
74270;BME280;62754;48.252;11.654;2023-04-25T04:18:20;95466.38;;;6.79;73.26
74270;BME280;62754;48.252;11.654;2023-04-25T04:20:45;95460.88;;;6.84;73.24
74270;BME280;62754;48.252;11.654;2023-04-25T04:23:14;95463.56;;;6.93;73.40
74270;BME280;62754;48.252;11.654;2023-04-25T04:25:42;95465.41;;;6.91;72.94
74270;BME280;62754;48.252;11.654;2023-04-25T04:28:08;95461.25;;;6.90;72.52
74270;BME280;62754;48.252;11.654;2023-04-25T04:30:39;95457.75;;;6.91;72.26
74270;BME280;62754;48.252;11.654;2023-04-25T04:33:07;95456.94;;;6.91;72.46
74270;BME280;62754;48.252;11.654;2023-04-25T04:35:35;95470.91;;;6.98;72.38
74270;BME280;62754;48.252;11.654;2023-04-25T04:38:03;95474.16;;;6.89;71.97
74270;BME280;62754;48.252;11.654;2023-04-25T04:40:34;95454.16;;;6.94;71.88
74270;BME280;62754;48.252;11.654;2023-04-25T04:42:59;95474.16;;;7.00;71.10
74270;BME280;62754;48.252;11.654;2023-04-25T04:45:25;95463.91;;;7.00;71.90
74270;BME280;62754;48.252;11.654;2023-04-25T04:47:51;95472.53;;;6.88;72.01
74270;BME280;62754;48.252;11.654;2023-04-25T04:50:16;95474.75;;;7.03;71.80
74270;BME280;62754;48.252;11.654;2023-04-25T04:52:47;95472.66;;;7.08;71.96
74270;BME280;62754;48.252;11.654;2023-04-25T04:55:13;95477.78;;;7.19;71.10
74270;BME280;62754;48.252;11.654;2023-04-25T04:57:41;95478.25;;;7.13;71.23
74270;BME280;62754;48.252;11.654;2023-04-25T05:00:07;95473.72;;;7.06;72.29
74270;BME280;62754;48.252;11.654;2023-04-25T05:02:33;95465.69;;;7.10;72.27
74270;BME280;62754;48.252;11.654;2023-04-25T05:04:59;95467.06;;;7.14;71.25
74270;BME280;62754;48.252;11.654;2023-04-25T05:07:24;95480.25;;;6.99;71.67
74270;BME280;62754;48.252;11.654;2023-04-25T05:09:50;95475.47;;;6.94;72.85
74270;BME280;62754;48.252;11.654;2023-04-25T05:12:18;95465.91;;;6.96;72.25
74270;BME280;62754;48.252;11.654;2023-04-25T05:14:43;95459.50;;;6.91;71.70
74270;BME280;62754;48.252;11.654;2023-04-25T05:17:09;95459.75;;;6.99;72.36
74270;BME280;62754;48.252;11.654;2023-04-25T05:19:35;95456.94;;;7.02;72.05
74270;BME280;62754;48.252;11.654;2023-04-25T05:22:03;95455.78;;;7.06;73.57
74270;BME280;62754;48.252;11.654;2023-04-25T05:24:29;95461.59;;;7.19;72.88
74270;BME280;62754;48.252;11.654;2023-04-25T05:26:55;95457.84;;;7.34;72.57
74270;BME280;62754;48.252;11.654;2023-04-25T05:29:20;95463.31;;;7.18;74.05
74270;BME280;62754;48.252;11.654;2023-04-25T05:31:48;95455.19;;;7.25;74.17
74270;BME280;62754;48.252;11.654;2023-04-25T05:34:16;95456.25;;;7.22;73.08
74270;BME280;62754;48.252;11.654;2023-04-25T05:36:45;95465.75;;;7.31;72.99
74270;BME280;62754;48.252;11.654;2023-04-25T05:39:13;95469.84;;;7.34;72.86
74270;BME280;62754;48.252;11.654;2023-04-25T05:41:42;95466.56;;;7.43;72.19
74270;BME280;62754;48.252;11.654;2023-04-25T05:44:10;95466.56;;;7.43;73.70
74270;BME280;62754;48.252;11.654;2023-04-25T05:46:38;95466.81;;;7.29;74.28
74270;BME280;62754;48.252;11.654;2023-04-25T05:49:03;95467.41;;;7.21;73.80
74270;BME280;62754;48.252;11.654;2023-04-25T05:51:29;95466.00;;;7.28;75.34
74270;BME280;62754;48.252;11.654;2023-04-25T05:53:59;95460.28;;;7.47;74.53
74270;BME280;62754;48.252;11.654;2023-04-25T05:56:25;95463.19;;;7.42;74.25
74270;BME280;62754;48.252;11.654;2023-04-25T05:58:53;95475.28;;;7.51;73.80
74270;BME280;62754;48.252;11.654;2023-04-25T06:01:22;95471.81;;;7.30;74.57
74270;BME280;62754;48.252;11.654;2023-04-25T06:03:50;95464.97;;;7.19;74.76
74270;BME280;62754;48.252;11.654;2023-04-25T06:06:16;95474.50;;;7.29;76.35
74270;BME280;62754;48.252;11.654;2023-04-25T06:08:41;95481.72;;;7.24;76.04
74270;BME280;62754;48.252;11.654;2023-04-25T06:11:10;95483.47;;;7.12;74.59
74270;BME280;62754;48.252;11.654;2023-04-25T06:13:38;95476.94;;;7.19;75.27
74270;BME280;62754;48.252;11.654;2023-04-25T06:16:06;95481.88;;;7.22;76.79
74270;BME280;62754;48.252;11.654;2023-04-25T06:18:32;95488.72;;;6.99;77.80
74270;BME280;62754;48.252;11.654;2023-04-25T06:20:58;95489.84;;;6.62;79.77
74270;BME280;62754;48.252;11.654;2023-04-25T06:23:23;95485.31;;;6.77;80.86
74270;BME280;62754;48.252;11.654;2023-04-25T06:25:51;95485.78;;;6.70;80.83
74270;BME280;62754;48.252;11.654;2023-04-25T06:28:17;95478.00;;;6.83;81.13
74270;BME280;62754;48.252;11.654;2023-04-25T06:30:43;95477.28;;;6.59;80.62
74270;BME280;62754;48.252;11.654;2023-04-25T06:33:11;95472.97;;;6.59;81.63
74270;BME280;62754;48.252;11.654;2023-04-25T06:35:41;95478.78;;;6.61;81.00
74270;BME280;62754;48.252;11.654;2023-04-25T06:38:09;95478.13;;;6.82;80.71
74270;BME280;62754;48.252;11.654;2023-04-25T06:40:37;95473.25;;;6.90;81.33
74270;BME280;62754;48.252;11.654;2023-04-25T06:43:03;95471.59;;;6.78;81.07
74270;BME280;62754;48.252;11.654;2023-04-25T06:45:29;95487.31;;;6.84;81.41
74270;BME280;62754;48.252;11.654;2023-04-25T06:47:54;95478.47;;;6.77;81.12
74270;BME280;62754;48.252;11.654;2023-04-25T06:50:25;95485.47;;;6.97;82.97
74270;BME280;62754;48.252;11.654;2023-04-25T06:52:53;95481.41;;;7.06;81.35
74270;BME280;62754;48.252;11.654;2023-04-25T06:55:18;95483.13;;;7.16;82.21
74270;BME280;62754;48.252;11.654;2023-04-25T06:57:46;95480.06;;;7.34;80.12
74270;BME280;62754;48.252;11.654;2023-04-25T07:00:15;95475.53;;;7.59;79.48
74270;BME280;62754;48.252;11.654;2023-04-25T07:02:43;95489.94;;;8.03;79.33
74270;BME280;62754;48.252;11.654;2023-04-25T07:05:09;95483.16;;;8.13;79.41
74270;BME280;62754;48.252;11.654;2023-04-25T07:07:35;95489.59;;;8.08;80.65
74270;BME280;62754;48.252;11.654;2023-04-25T07:10:00;95483.25;;;7.80;79.04
74270;BME280;62754;48.252;11.654;2023-04-25T07:12:26;95484.97;;;7.48;79.75
74270;BME280;62754;48.252;11.654;2023-04-25T07:14:52;95479.59;;;7.51;81.31
74270;BME280;62754;48.252;11.654;2023-04-25T07:17:22;95485.09;;;7.46;80.43
74270;BME280;62754;48.252;11.654;2023-04-25T07:19:51;95473.88;;;7.58;81.23
74270;BME280;62754;48.252;11.654;2023-04-25T07:22:16;95480.88;;;7.99;80.17
74270;BME280;62754;48.252;11.654;2023-04-25T07:24:44;95470.19;;;8.15;78.95
74270;BME280;62754;48.252;11.654;2023-04-25T07:27:12;95478.03;;;8.13;78.87
74270;BME280;62754;48.252;11.654;2023-04-25T07:29:38;95471.56;;;8.30;78.01
74270;BME280;62754;48.252;11.654;2023-04-25T07:32:04;95469.31;;;8.37;80.31
74270;BME280;62754;48.252;11.654;2023-04-25T07:34:31;95474.72;;;8.34;77.84
74270;BME280;62754;48.252;11.654;2023-04-25T07:37:00;95469.06;;;8.40;76.33
74270;BME280;62754;48.252;11.654;2023-04-25T07:39:26;95466.88;;;8.35;75.08
74270;BME280;62754;48.252;11.654;2023-04-25T07:41:52;95466.19;;;8.33;75.02
74270;BME280;62754;48.252;11.654;2023-04-25T07:44:17;95462.34;;;8.69;76.24
74270;BME280;62754;48.252;11.654;2023-04-25T07:46:43;95464.63;;;8.63;75.87
74270;BME280;62754;48.252;11.654;2023-04-25T07:49:11;95458.94;;;8.89;73.82
74270;BME280;62754;48.252;11.654;2023-04-25T07:51:41;95463.78;;;9.13;72.91
74270;BME280;62754;48.252;11.654;2023-04-25T07:54:12;95454.53;;;9.81;69.81
74270;BME280;62754;48.252;11.654;2023-04-25T07:56:37;95461.66;;;9.77;70.25
74270;BME280;62754;48.252;11.654;2023-04-25T07:59:03;95452.50;;;10.03;69.32
74270;BME280;62754;48.252;11.654;2023-04-25T08:01:31;95455.06;;;10.13;69.71
74270;BME280;62754;48.252;11.654;2023-04-25T08:03:57;95456.28;;;9.99;68.90
74270;BME280;62754;48.252;11.654;2023-04-25T08:06:25;95458.22;;;10.45;70.07
74270;BME280;62754;48.252;11.654;2023-04-25T08:08:55;95448.66;;;10.75;67.30
74270;BME280;62754;48.252;11.654;2023-04-25T08:11:23;95449.56;;;11.30;63.67
74270;BME280;62754;48.252;11.654;2023-04-25T08:13:51;95453.28;;;11.45;61.06
74270;BME280;62754;48.252;11.654;2023-04-25T08:16:17;95459.34;;;11.54;61.96
74270;BME280;62754;48.252;11.654;2023-04-25T08:18:45;95447.06;;;11.92;61.17
74270;BME280;62754;48.252;11.654;2023-04-25T08:21:13;95452.66;;;12.06;61.68
74270;BME280;62754;48.252;11.654;2023-04-25T08:23:38;95456.03;;;12.06;61.18
74270;BME280;62754;48.252;11.654;2023-04-25T08:26:07;95450.31;;;12.12;60.26
74270;BME280;62754;48.252;11.654;2023-04-25T08:28:32;95457.50;;;12.09;60.58
74270;BME280;62754;48.252;11.654;2023-04-25T08:31:00;95463.06;;;11.69;59.30
74270;BME280;62754;48.252;11.654;2023-04-25T08:33:31;95448.44;;;11.60;59.01
74270;BME280;62754;48.252;11.654;2023-04-25T08:35:59;95451.69;;;10.97;60.98
74270;BME280;62754;48.252;11.654;2023-04-25T08:38:27;95456.81;;;10.51;64.17
74270;BME280;62754;48.252;11.654;2023-04-25T08:40:56;95466.63;;;10.38;64.92
74270;BME280;62754;48.252;11.654;2023-04-25T08:43:23;95465.75;;;10.09;64.11
74270;BME280;62754;48.252;11.654;2023-04-25T08:45:48;95471.88;;;9.88;64.12
74270;BME280;62754;48.252;11.654;2023-04-25T08:48:16;95476.97;;;9.79;64.09
74270;BME280;62754;48.252;11.654;2023-04-25T08:50:50;95484.22;;;9.45;64.34
74270;BME280;62754;48.252;11.654;2023-04-25T08:53:28;95474.75;;;9.55;65.21
74270;BME280;62754;48.252;11.654;2023-04-25T08:56:03;95478.59;;;10.95;60.99
74270;BME280;62754;48.252;11.654;2023-04-25T08:58:33;95465.81;;;12.12;58.55
74270;BME280;62754;48.252;11.654;2023-04-25T09:01:00;95460.19;;;12.78;54.50
74270;BME280;62754;48.252;11.654;2023-04-25T09:03:27;95459.75;;;13.84;53.39
74270;BME280;62754;48.252;11.654;2023-04-25T09:05:56;95455.66;;;14.40;50.41
74270;BME280;62754;48.252;11.654;2023-04-25T09:08:26;95461.81;;;14.39;49.11
74270;BME280;62754;48.252;11.654;2023-04-25T09:10:54;95466.03;;;14.48;47.62
74270;BME280;62754;48.252;11.654;2023-04-25T09:13:29;95457.94;;;13.76;49.82
74270;BME280;62754;48.252;11.654;2023-04-25T09:15:58;95466.59;;;13.17;49.78
74270;BME280;62754;48.252;11.654;2023-04-25T09:18:28;95462.72;;;14.21;48.38
74270;BME280;62754;48.252;11.654;2023-04-25T09:20:56;95463.44;;;14.40;47.27
74270;BME280;62754;48.252;11.654;2023-04-25T09:23:24;95462.06;;;14.11;46.58
74270;BME280;62754;48.252;11.654;2023-04-25T09:25:53;95470.34;;;13.65;47.84
74270;BME280;62754;48.252;11.654;2023-04-25T09:28:34;95474.66;;;13.90;47.62
74270;BME280;62754;48.252;11.654;2023-04-25T09:31:00;95463.88;;;14.92;46.32
74270;BME280;62754;48.252;11.654;2023-04-25T09:33:30;95465.84;;;14.98;44.14
74270;BME280;62754;48.252;11.654;2023-04-25T09:36:08;95475.28;;;13.84;48.69
74270;BME280;62754;48.252;11.654;2023-04-25T09:38:44;95472.72;;;13.92;48.01
74270;BME280;62754;48.252;11.654;2023-04-25T09:41:12;95477.66;;;14.68;46.88
74270;BME280;62754;48.252;11.654;2023-04-25T09:43:39;95482.56;;;15.42;44.85
74270;BME280;62754;48.252;11.654;2023-04-25T09:46:13;95473.50;;;15.85;44.00
74270;BME280;62754;48.252;11.654;2023-04-25T09:48:50;95473.16;;;15.41;42.56
74270;BME280;62754;48.252;11.654;2023-04-25T09:51:18;95465.28;;;16.04;41.88
74270;BME280;62754;48.252;11.654;2023-04-25T09:53:47;95473.91;;;16.50;41.21
74270;BME280;62754;48.252;11.654;2023-04-25T09:56:13;95472.75;;;16.30;37.86
74270;BME280;62754;48.252;11.654;2023-04-25T09:58:42;95457.66;;;17.38;38.22
74270;BME280;62754;48.252;11.654;2023-04-25T10:01:11;95464.88;;;17.21;36.97
74270;BME280;62754;48.252;11.654;2023-04-25T10:03:40;95463.09;;;15.54;39.81
74270;BME280;62754;48.252;11.654;2023-04-25T10:06:12;95463.09;;;14.43;42.62
74270;BME280;62754;48.252;11.654;2023-04-25T10:08:40;95468.94;;;13.70;44.82
74270;BME280;62754;48.252;11.654;2023-04-25T10:11:11;95467.56;;;13.50;46.39
74270;BME280;62754;48.252;11.654;2023-04-25T10:13:39;95473.88;;;12.96;48.18
74270;BME280;62754;48.252;11.654;2023-04-25T10:16:05;95463.66;;;13.12;47.93
74270;BME280;62754;48.252;11.654;2023-04-25T10:18:32;95466.84;;;13.32;47.52
74270;BME280;62754;48.252;11.654;2023-04-25T10:21:00;95463.75;;;15.48;44.34
74270;BME280;62754;48.252;11.654;2023-04-25T10:23:32;95469.94;;;16.17;40.75
74270;BME280;62754;48.252;11.654;2023-04-25T10:26:01;95469.72;;;15.49;41.97
74270;BME280;62754;48.252;11.654;2023-04-25T10:28:27;95470.13;;;16.61;40.67
74270;BME280;62754;48.252;11.654;2023-04-25T10:31:02;95464.28;;;16.59;42.18
74270;BME280;62754;48.252;11.654;2023-04-25T10:33:38;95460.53;;;16.99;41.83
74270;BME280;62754;48.252;11.654;2023-04-25T10:36:21;95454.63;;;16.45;39.77
74270;BME280;62754;48.252;11.654;2023-04-25T10:38:50;95464.63;;;15.33;41.85
74270;BME280;62754;48.252;11.654;2023-04-25T10:41:20;95461.81;;;14.39;43.64
74270;BME280;62754;48.252;11.654;2023-04-25T10:43:50;95467.47;;;13.34;46.80
74270;BME280;62754;48.252;11.654;2023-04-25T10:46:30;95485.03;;;12.18;50.49
74270;BME280;62754;48.252;11.654;2023-04-25T10:48:58;95485.19;;;11.44;52.65
74270;BME280;62754;48.252;11.654;2023-04-25T10:59:18;95502.00;;;10.26;58.43
74270;BME280;62754;48.252;11.654;2023-04-25T11:02:11;95506.66;;;10.02;58.20
74270;BME280;62754;48.252;11.654;2023-04-25T11:04:37;95507.41;;;10.23;58.47
74270;BME280;62754;48.252;11.654;2023-04-25T11:09:32;95526.25;;;10.52;57.90
74270;BME280;62754;48.252;11.654;2023-04-25T11:11:59;95539.00;;;10.73;57.33
74270;BME280;62754;48.252;11.654;2023-04-25T11:14:25;95533.94;;;10.91;59.24
74270;BME280;62754;48.252;11.654;2023-04-25T11:16:55;95550.09;;;10.55;59.70
74270;BME280;62754;48.252;11.654;2023-04-25T11:19:21;95555.22;;;10.16;62.17
74270;BME280;62754;48.252;11.654;2023-04-25T11:21:52;95577.78;;;9.53;66.52
74270;BME280;62754;48.252;11.654;2023-04-25T11:24:34;95582.84;;;8.40;72.11
74270;BME280;62754;48.252;11.654;2023-04-25T11:27:02;95579.28;;;8.09;73.10
74270;BME280;62754;48.252;11.654;2023-04-25T11:29:29;95576.16;;;7.95;73.79
74270;BME280;62754;48.252;11.654;2023-04-25T11:31:55;95571.25;;;7.92;74.84
74270;BME280;62754;48.252;11.654;2023-04-25T11:34:21;95584.78;;;7.94;75.84
74270;BME280;62754;48.252;11.654;2023-04-25T11:36:47;95577.94;;;7.72;76.92
74270;BME280;62754;48.252;11.654;2023-04-25T11:39:17;95574.56;;;7.72;78.06
74270;BME280;62754;48.252;11.654;2023-04-25T11:41:43;95579.47;;;7.52;80.44
74270;BME280;62754;48.252;11.654;2023-04-25T11:44:09;95586.69;;;7.58;80.22
74270;BME280;62754;48.252;11.654;2023-04-25T11:46:34;95586.56;;;7.49;81.04
74270;BME280;62754;48.252;11.654;2023-04-25T11:49:03;95595.28;;;7.57;81.67
74270;BME280;62754;48.252;11.654;2023-04-25T11:51:28;95585.09;;;8.00;79.93
74270;BME280;62754;48.252;11.654;2023-04-25T11:53:56;95582.25;;;8.69;77.65
74270;BME280;62754;48.252;11.654;2023-04-25T11:56:22;95585.22;;;9.05;75.66
74270;BME280;62754;48.252;11.654;2023-04-25T11:59:02;95587.22;;;9.83;74.95
74270;BME280;62754;48.252;11.654;2023-04-25T12:01:34;95588.16;;;9.82;74.88
74270;BME280;62754;48.252;11.654;2023-04-25T12:04:13;95585.47;;;9.93;74.97
74270;BME280;62754;48.252;11.654;2023-04-25T12:06:42;95594.59;;;10.07;74.35
74270;BME280;62754;48.252;11.654;2023-04-25T12:09:10;95598.34;;;10.33;73.76
74270;BME280;62754;48.252;11.654;2023-04-25T12:11:56;95606.69;;;10.16;72.28
74270;BME280;62754;48.252;11.654;2023-04-25T12:14:24;95602.69;;;10.42;70.67
74270;BME280;62754;48.252;11.654;2023-04-25T12:16:54;95603.50;;;10.43;69.96
74270;BME280;62754;48.252;11.654;2023-04-25T12:19:21;95601.63;;;10.83;69.85
74270;BME280;62754;48.252;11.654;2023-04-25T12:21:47;95609.72;;;10.40;68.84
74270;BME280;62754;48.252;11.654;2023-04-25T12:24:26;95624.28;;;9.50;67.69
74270;BME280;62754;48.252;11.654;2023-04-25T12:26:59;95635.97;;;8.60;71.30
74270;BME280;62754;48.252;11.654;2023-04-25T12:29:26;95627.41;;;8.39;74.35
74270;BME280;62754;48.252;11.654;2023-04-25T12:31:56;95624.84;;;8.17;74.38
74270;BME280;62754;48.252;11.654;2023-04-25T12:34:25;95621.47;;;8.17;75.37
74270;BME280;62754;48.252;11.654;2023-04-25T12:36:51;95626.03;;;8.13;77.80
74270;BME280;62754;48.252;11.654;2023-04-25T12:39:21;95625.91;;;8.14;76.20
74270;BME280;62754;48.252;11.654;2023-04-25T12:41:52;95627.97;;;8.43;76.77
74270;BME280;62754;48.252;11.654;2023-04-25T12:44:18;95624.03;;;8.17;77.05
74270;BME280;62754;48.252;11.654;2023-04-25T12:46:46;95634.91;;;7.98;78.71
74270;BME280;62754;48.252;11.654;2023-04-25T12:49:12;95632.56;;;8.17;80.08
74270;BME280;62754;48.252;11.654;2023-04-25T12:51:38;95640.59;;;8.24;78.92
74270;BME280;62754;48.252;11.654;2023-04-25T12:54:07;95648.91;;;7.94;79.49
74270;BME280;62754;48.252;11.654;2023-04-25T12:56:35;95654.25;;;7.68;80.56
74270;BME280;62754;48.252;11.654;2023-04-25T12:59:03;95655.72;;;7.38;82.97
74270;BME280;62754;48.252;11.654;2023-04-25T13:01:31;95633.59;;;7.26;84.27
74270;BME280;62754;48.252;11.654;2023-04-25T13:03:57;95665.59;;;7.09;84.69
74270;BME280;62754;48.252;11.654;2023-04-25T13:06:25;95665.63;;;7.31;84.26
74270;BME280;62754;48.252;11.654;2023-04-25T13:08:55;95658.16;;;7.17;85.25
74270;BME280;62754;48.252;11.654;2023-04-25T13:11:24;95668.81;;;7.00;84.62
74270;BME280;62754;48.252;11.654;2023-04-25T13:13:51;95668.66;;;6.90;83.32